Messwerte Basrah

Temperatur

Temperatur
°C
1574362800 22.00 22.00 14
1574366400 23.00 23.00
1574370000 0.00 0.00 11
1574373600 1.00 1.00 11
1574377200 2.00 2.00 10
1574380800 3.00 3.00 10
1574384400 4.00 4.00
1574388000 5.00 5.00
1574391600 6.00 6.00 8
1574395200 7.00 7.00 8
1574398800 8.00 8.00 10
1574402400 9.00 9.00 12
1574406000 10.00 10.00 15
1574409600 11.00 11.00 18
1574413200 12.00 12.00 20
1574416800 13.00 13.00 21
1574420400 14.00 14.00 22
1574424000 15.00 15.00 22
1574427600 16.00 16.00 21
1574431200 17.00 17.00 20
1574434800 18.00 18.00 18
1574438400 19.00 19.00
1574442000 20.00 20.00
1574445600 21.00 21.00 15

Aktuellste Messwerte

Wettercharakter
Wetter: meist klar
Temperatur
15 °C
Feuchtigkeit
65 %
Wind
5 km/hWindrichtung: Nordost
Luftdruck
1020 hPa
Messzeit: 22. November 2019, 21.00Datenquelle: METAR

Weitere Messstationen in der Nähe

Messstation Temperatur Entfernung
Abadan 15 °C 50 km
Ahwaz 12 °C 120 km
Kuwait-Stadt 17 °C 151 km
Omidiyeh 15 °C 182 km
Masjed-Soleyma - 211 km
Kharg - 280 km
Gach Saran 10 °C 293 km

Wind

Windrichtung Böen Mittelwind
° km/h km/h
1574362800 22.00 21.00 - 22.00 0
1574366400 23.00 22.00 - 23.00
1574370000 0.00 23.00 - 0.00 260° 10
1574373600 1.00 0.00 - 1.00 210° 5
1574377200 2.00 1.00 - 2.00 200° 5
1574380800 3.00 2.00 - 3.00 220° 10
1574384400 4.00 3.00 - 4.00
1574388000 5.00 4.00 - 5.00
1574391600 6.00 5.00 - 6.00 190° 5
1574395200 7.00 6.00 - 7.00 210° 10
1574398800 8.00 7.00 - 8.00 220° 5
1574402400 9.00 8.00 - 9.00 230° 10
1574406000 10.00 9.00 - 10.00 270° 5
1574409600 11.00 10.00 - 11.00 300° 5
1574413200 12.00 11.00 - 12.00 300° 5
1574416800 13.00 12.00 - 13.00 280° 10
1574420400 14.00 13.00 - 14.00 330° 10
1574424000 15.00 14.00 - 15.00 310° 10
1574427600 16.00 15.00 - 16.00 330° 10
1574431200 17.00 16.00 - 17.00 330° 10
1574434800 18.00 17.00 - 18.00 320° 5
1574438400 19.00 18.00 - 19.00
1574442000 20.00 19.00 - 20.00
1574445600 21.00 20.00 - 21.00 60° 5

Ihre Wetterstation

Fehlt Ihre Wetterstation auf unserem Portal?

Schreiben Sie an network@meteonews.ch

Klima

Wann ist es am wärmsten? Wann regnet es am wenigsten? Unsere Klimadaten geben Auskunft.